Time;durP1;ratioP1;P1;durP2;ratioP2;P2;SDS_P1;SDS_P2;PMS_P1;PMS_P2;Temp;Humidity;BMP_temperature;BMP_pressure;BME280_temperature;BME280_humidity;BME280_pressure;Samples;Min_cycle;Max_cycle;Signal;HPM_P1;HPM_P2
2021/10/14 00:00:25;;;;;;;10.60;5.07;;;1.50;98.90;;;;;;2081177;28;20173;-67
2021/10/14 00:01:26;;;;;;;9.57;5.07;;;1.50;99.00;;;;;;2081016;28;20185;-66
2021/10/14 00:02:28;;;;;;;8.67;5.10;;;1.60;99.10;;;;;;2081384;28;20652;-66
2021/10/14 00:03:28;;;;;;;7.50;4.93;;;1.60;99.40;;;;;;2081258;28;20181;-65
2021/10/14 00:04:29;;;;;;;11.77;4.67;;;1.60;99.50;;;;;;2081230;28;20178;-66
2021/10/14 00:05:30;;;;;;;7.43;4.53;;;1.60;99.50;;;;;;2080942;28;20227;-66
2021/10/14 00:06:31;;;;;;;11.40;5.30;;;1.70;99.40;;;;;;2081262;28;20231;-67
2021/10/14 00:07:31;;;;;;;7.50;4.63;;;1.70;99.30;;;;;;2081192;28;20174;-67
2021/10/14 00:08:32;;;;;;;9.33;4.83;;;1.70;99.30;;;;;;2081160;28;20644;-66
2021/10/14 00:09:32;;;;;;;8.43;5.17;;;1.70;99.40;;;;;;2081278;28;20268;-67
2021/10/14 00:10:33;;;;;;;6.33;4.20;;;1.70;99.30;;;;;;2081162;28;20216;-66
2021/10/14 00:11:34;;;;;;;9.90;4.33;;;1.70;99.30;;;;;;2080941;28;20272;-66
2021/10/14 00:12:35;;;;;;;8.93;4.83;;;1.70;99.30;;;;;;2081038;28;20208;-68
2021/10/14 00:13:35;;;;;;;9.97;5.17;;;1.70;99.30;;;;;;2081275;28;20181;-67
2021/10/14 00:14:36;;;;;;;8.63;4.80;;;1.70;99.30;;;;;;2081214;28;20270;-66
2021/10/14 00:15:37;;;;;;;8.40;4.47;;;1.70;99.30;;;;;;2081205;28;20204;-66
2021/10/14 00:16:38;;;;;;;7.87;4.57;;;1.70;99.20;;;;;;2081058;28;20546;-65
2021/10/14 00:17:38;;;;;;;8.55;4.45;;;1.70;99.20;;;;;;2081270;28;20203;-66
2021/10/14 00:18:39;;;;;;;6.43;4.43;;;1.70;99.20;;;;;;2081221;28;20178;-67
2021/10/14 00:19:40;;;;;;;7.17;4.07;;;1.70;99.00;;;;;;2081231;28;20196;-66
2021/10/14 00:20:40;;;;;;;7.90;4.40;;;1.70;99.00;;;;;;2081096;28;20280;-66
2021/10/14 00:21:41;;;;;;;6.43;3.97;;;1.70;98.90;;;;;;2080824;28;20192;-67
2021/10/14 00:22:42;;;;;;;7.07;3.93;;;1.70;98.90;;;;;;2081159;28;20271;-66
2021/10/14 00:23:42;;;;;;;6.90;4.17;;;1.60;98.90;;;;;;2081340;28;20184;-66
2021/10/14 00:24:43;;;;;;;8.10;4.70;;;1.60;98.90;;;;;;2081112;28;20192;-66
2021/10/14 00:25:44;;;;;;;11.17;5.17;;;1.60;98.80;;;;;;2081237;28;20283;-67
2021/10/14 00:26:45;;;;;;;6.30;4.40;;;1.60;98.80;;;;;;2081039;28;20185;-66
2021/10/14 00:27:46;;;;;;;8.03;4.07;;;1.50;98.70;;;;;;2081246;28;20410;-66
2021/10/14 00:28:47;;;;;;;6.40;3.78;;;1.60;98.80;;;;;;2081119;28;20827;-66
2021/10/14 00:29:47;;;;;;;6.83;4.27;;;1.60;98.70;;;;;;2081141;28;20177;-66
2021/10/14 00:30:48;;;;;;;8.70;3.50;;;1.50;98.70;;;;;;2082580;28;20272;-66
2021/10/14 00:31:49;;;;;;;7.03;4.30;;;1.50;98.50;;;;;;2082403;28;20177;-67
2021/10/14 00:32:50;;;;;;;8.33;3.90;;;1.50;98.40;;;;;;2082620;28;20195;-64
2021/10/14 00:33:50;;;;;;;6.73;3.90;;;1.50;98.50;;;;;;2082750;28;20641;-67
2021/10/14 00:34:51;;;;;;;6.83;4.00;;;1.50;98.40;;;;;;2082534;28;20185;-69
2021/10/14 00:35:52;;;;;;;5.27;3.83;;;1.50;98.40;;;;;;2082651;28;20188;-67
2021/10/14 00:36:52;;;;;;;6.13;3.70;;;1.50;98.40;;;;;;2082675;28;20227;-67
2021/10/14 00:37:53;;;;;;;6.03;3.93;;;1.40;98.40;;;;;;2082544;28;20184;-66
2021/10/14 00:38:54;;;;;;;8.27;3.53;;;1.40;98.40;;;;;;2082636;28;20230;-65
2021/10/14 00:39:54;;;;;;;6.40;3.73;;;1.40;98.40;;;;;;2082621;28;20183;-67
2021/10/14 00:40:55;;;;;;;6.90;3.43;;;1.40;98.40;;;;;;2082529;28;20219;-67
2021/10/14 00:41:56;;;;;;;6.73;3.60;;;1.40;98.40;;;;;;2082496;28;20602;-68
2021/10/14 00:42:56;;;;;;;5.10;3.40;;;1.40;98.40;;;;;;2082627;28;20293;-67
2021/10/14 00:43:58;;;;;;;5.80;3.33;;;1.40;98.20;;;;;;2082424;28;20182;-67
2021/10/14 00:45:00;;;;;;;7.00;3.70;;;1.40;98.20;;;;;;2082500;28;20302;-66
2021/10/14 00:46:00;;;;;;;4.32;3.30;;;1.40;98.30;;;;;;2082469;28;20173;-66
2021/10/14 00:47:01;;;;;;;6.90;4.27;;;1.40;98.50;;;;;;2082636;28;20191;-66
2021/10/14 00:48:02;;;;;;;6.57;3.80;;;1.30;98.50;;;;;;2082616;28;20680;-66
2021/10/14 00:49:03;;;;;;;6.93;3.93;;;1.30;98.50;;;;;;2080919;28;20200;-67
2021/10/14 00:50:08;;;;;;;9.60;4.33;;;1.30;98.60;;;;;;2075636;28;20661;-67
2021/10/14 00:51:10;;;;;;;7.40;4.13;;;1.40;98.70;;;;;;2074164;28;20645;-66
2021/10/14 00:52:11;;;;;;;6.63;3.92;;;1.40;98.80;;;;;;2073657;28;20213;-66
2021/10/14 00:53:11;;;;;;;7.53;4.20;;;1.40;98.90;;;;;;2073888;28;20205;-68
2021/10/14 00:54:15;;;;;;;8.40;4.17;;;1.40;98.80;;;;;;2074192;28;20261;-67
2021/10/14 00:55:16;;;;;;;7.57;4.22;;;1.40;99.00;;;;;;2073776;28;20204;-67
2021/10/14 00:56:17;;;;;;;6.27;3.90;;;1.40;99.10;;;;;;2065631;28;20193;-66
2021/10/14 00:57:18;;;;;;;6.60;4.00;;;1.50;99.20;;;;;;2071535;28;20209;-66
2021/10/14 00:58:19;;;;;;;5.85;3.80;;;1.40;99.10;;;;;;2081756;28;20536;-66
2021/10/14 00:59:21;;;;;;;6.03;4.13;;;1.50;99.00;;;;;;2082523;28;20185;-66
2021/10/14 01:00:21;;;;;;;5.70;3.65;;;1.40;99.00;;;;;;2081686;28;20174;-65
2021/10/14 01:01:22;;;;;;;5.57;3.50;;;1.50;99.20;;;;;;2081709;28;20173;-66
2021/10/14 01:02:23;;;;;;;6.93;4.03;;;1.50;99.00;;;;;;2082485;28;20189;-66
2021/10/14 01:03:23;;;;;;;6.10;4.13;;;1.50;99.00;;;;;;2082631;28;20181;-66
2021/10/14 01:04:24;;;;;;;8.03;4.33;;;1.50;99.50;;;;;;2082410;28;20645;-67
2021/10/14 01:05:25;;;;;;;7.65;4.10;;;1.50;99.00;;;;;;2082328;28;20217;-66
2021/10/14 01:06:26;;;;;;;5.57;3.23;;;1.40;99.10;;;;;;2082333;28;20193;-67
2021/10/14 01:07:29;;;;;;;6.83;3.80;;;1.50;99.20;;;;;;2082486;28;20189;-67
2021/10/14 01:08:30;;;;;;;6.10;3.80;;;1.40;99.30;;;;;;2081814;28;20636;-66
2021/10/14 01:09:30;;;;;;;5.10;3.40;;;1.40;99.30;;;;;;2081817;28;20244;-66
2021/10/14 01:10:31;;;;;;;5.00;3.27;;;1.40;99.20;;;;;;2082296;28;20199;-66
2021/10/14 01:11:32;;;;;;;5.43;3.63;;;1.40;99.20;;;;;;2082318;28;20652;-66
2021/10/14 01:12:34;;;;;;;6.38;3.40;;;1.40;99.10;;;;;;2082213;28;20241;-66
2021/10/14 01:13:34;;;;;;;7.38;3.40;;;1.40;99.10;;;;;;2081723;28;20363;-66
2021/10/14 01:14:35;;;;;;;5.53;3.20;;;1.40;98.80;;;;;;2081691;28;20252;-66
2021/10/14 01:15:36;;;;;;;4.90;3.33;;;1.50;98.60;;;;;;2082159;28;20212;-66
2021/10/14 01:16:42;;;;;;;5.43;3.30;;;1.40;98.40;;;;;;2081734;28;20215;-66
2021/10/14 01:17:42;;;;;;;5.97;3.10;;;1.40;98.40;;;;;;2081794;28;20553;-66
2021/10/14 01:18:43;;;;;;;4.90;3.50;;;1.40;98.40;;;;;;2082250;28;20189;-66
2021/10/14 01:19:44;;;;;;;8.97;3.73;;;1.30;98.40;;;;;;2082347;28;20188;-66
2021/10/14 01:20:45;;;;;;;6.05;3.15;;;1.30;98.40;;;;;;2082284;28;20180;-66
2021/10/14 01:21:49;;;;;;;7.23;3.53;;;1.20;98.40;;;;;;2081994;28;20189;-65
2021/10/14 01:22:50;;;;;;;6.57;3.47;;;1.20;98.40;;;;;;2082209;28;20177;-67
2021/10/14 01:23:50;;;;;;;7.47;3.40;;;1.20;98.30;;;;;;2082266;28;20181;-67
2021/10/14 01:24:51;;;;;;;4.47;2.80;;;1.20;98.60;;;;;;2081464;28;20181;-66
2021/10/14 01:25:52;;;;;;;4.97;3.27;;;1.20;98.70;;;;;;2081599;28;20232;-66
2021/10/14 01:26:52;;;;;;;5.97;3.30;;;1.20;98.70;;;;;;2082096;28;20555;-68
2021/10/14 01:27:53;;;;;;;8.80;3.90;;;1.20;98.80;;;;;;2082150;28;20185;-66
2021/10/14 01:28:54;;;;;;;6.33;3.37;;;1.20;99.10;;;;;;2082212;28;20188;-66
2021/10/14 01:29:55;;;;;;;3.92;3.00;;;1.20;99.00;;;;;;2082210;28;20169;-66
2021/10/14 01:30:58;;;;;;;7.07;3.60;;;1.20;99.00;;;;;;2082208;28;20185;-66
2021/10/14 01:32:01;;;;;;;5.07;2.78;;;1.20;99.10;;;;;;2081850;28;20185;-66
2021/10/14 01:33:02;;;;;;;4.35;2.65;;;1.20;99.00;;;;;;2081466;28;20585;-67
2021/10/14 01:34:03;;;;;;;5.10;3.23;;;1.20;99.00;;;;;;2081574;28;20263;-67
2021/10/14 01:35:05;;;;;;;5.18;3.15;;;1.20;99.00;;;;;;2082057;28;20193;-66
2021/10/14 01:36:06;;;;;;;4.90;3.20;;;1.20;98.90;;;;;;2081603;28;20200;-66
2021/10/14 01:37:07;;;;;;;9.10;3.20;;;1.20;98.80;;;;;;2081637;28;20179;-67
2021/10/14 01:38:07;;;;;;;5.27;3.30;;;1.20;98.70;;;;;;2082051;28;20707;-67
2021/10/14 01:39:08;;;;;;;5.17;3.07;;;1.20;98.70;;;;;;2082231;28;20265;-66
2021/10/14 01:40:10;;;;;;;3.77;2.50;;;1.20;98.70;;;;;;2082315;28;20652;-67
2021/10/14 01:41:11;;;;;;;4.10;2.88;;;1.20;98.80;;;;;;2080830;28;20193;-66
2021/10/14 01:42:12;;;;;;;8.05;3.42;;;1.20;98.90;;;;;;2080665;28;20180;-66
2021/10/14 01:43:14;;;;;;;5.17;3.37;;;1.20;99.10;;;;;;2082004;28;20671;-65
2021/10/14 01:44:15;;;;;;;6.28;3.28;;;1.20;99.30;;;;;;2081406;28;20267;-68
2021/10/14 01:45:16;;;;;;;5.83;3.20;;;1.20;99.30;;;;;;2081447;28;20212;-66
2021/10/14 01:46:16;;;;;;;5.03;3.07;;;1.20;99.30;;;;;;2081999;28;20743;-65
2021/10/14 01:47:17;;;;;;;4.87;3.00;;;1.20;99.10;;;;;;2081400;28;20284;-65
2021/10/14 01:48:18;;;;;;;4.90;2.57;;;1.20;98.80;;;;;;2081263;28;20228;-66
2021/10/14 01:49:19;;;;;;;5.83;2.83;;;1.30;98.80;;;;;;2081963;28;20550;-67
2021/10/14 01:50:20;;;;;;;4.03;3.00;;;1.20;98.80;;;;;;2081776;28;20216;-66
2021/10/14 01:51:20;;;;;;;4.03;2.90;;;1.20;98.80;;;;;;2081813;28;20192;-66
2021/10/14 01:52:21;;;;;;;6.80;2.93;;;1.20;98.80;;;;;;2081949;28;20234;-67
2021/10/14 01:53:22;;;;;;;7.27;3.20;;;1.20;98.80;;;;;;2082089;28;20255;-66
2021/10/14 01:54:23;;;;;;;4.43;3.08;;;1.20;98.80;;;;;;2081859;28;20177;-65
2021/10/14 01:55:24;;;;;;;6.50;3.57;;;1.20;98.80;;;;;;2081814;28;20216;-66
2021/10/14 01:56:24;;;;;;;3.27;2.40;;;1.20;98.70;;;;;;2081897;28;20191;-66
2021/10/14 01:57:25;;;;;;;5.60;2.77;;;1.10;98.60;;;;;;2081939;28;20273;-66
2021/10/14 01:58:26;;;;;;;3.90;2.73;;;1.10;98.60;;;;;;2081907;28;20177;-66
2021/10/14 01:59:26;;;;;;;8.40;2.90;;;1.10;98.60;;;;;;2082014;28;20208;-66
2021/10/14 02:00:27;;;;;;;5.20;2.80;;;1.10;98.60;;;;;;2081875;28;20533;-66
2021/10/14 02:01:28;;;;;;;3.73;2.40;;;1.10;99.10;;;;;;2081660;28;20209;-66
2021/10/14 02:02:29;;;;;;;4.17;2.97;;;1.10;98.40;;;;;;2081891;28;20264;-66
2021/10/14 02:03:29;;;;;;;6.47;2.90;;;1.10;98.40;;;;;;2081923;28;20192;-66
2021/10/14 02:04:30;;;;;;;6.40;2.97;;;1.10;98.30;;;;;;2081854;28;20185;-66
2021/10/14 02:05:31;;;;;;;4.70;2.60;;;1.00;98.30;;;;;;2081888;28;20197;-65
2021/10/14 02:06:32;;;;;;;4.30;2.67;;;1.00;98.20;;;;;;2081950;28;20656;-66
2021/10/14 02:07:32;;;;;;;4.43;2.70;;;1.00;98.30;;;;;;2081913;28;20188;-66
2021/10/14 02:08:33;;;;;;;4.30;2.77;;;0.90;98.30;;;;;;2081919;28;20609;-67
2021/10/14 02:09:34;;;;;;;5.53;2.93;;;0.90;98.20;;;;;;2081929;28;20710;-66
2021/10/14 02:10:34;;;;;;;3.30;2.57;;;0.90;98.10;;;;;;2081879;28;20215;-66
2021/10/14 02:11:35;;;;;;;4.13;2.90;;;0.90;98.20;;;;;;2081222;28;20663;-68
2021/10/14 02:12:37;;;;;;;5.07;2.90;;;0.80;98.30;;;;;;2081192;28;20244;-66
2021/10/14 02:13:38;;;;;;;3.05;2.58;;;0.80;98.40;;;;;;2081244;28;20264;-66
2021/10/14 02:14:38;;;;;;;4.23;2.60;;;0.90;98.70;;;;;;2081274;28;20185;-66
2021/10/14 02:15:39;;;;;;;6.97;3.13;;;0.90;98.80;;;;;;2081766;28;20207;-66
2021/10/14 02:16:40;;;;;;;3.93;2.63;;;0.90;99.30;;;;;;2081964;28;20209;-65
2021/10/14 02:17:41;;;;;;;4.37;2.87;;;0.90;98.70;;;;;;2081955;28;20196;-66
2021/10/14 02:18:41;;;;;;;2.93;2.63;;;0.90;98.70;;;;;;2079690;28;20188;-65
2021/10/14 02:19:42;;;;;;;5.53;2.70;;;0.90;98.80;;;;;;2081898;28;20416;-66
2021/10/14 02:20:43;;;;;;;4.63;2.53;;;0.90;99.00;;;;;;2081037;28;20177;-66
2021/10/14 02:21:43;;;;;;;3.87;2.93;;;0.90;98.90;;;;;;2081217;28;20187;-66
2021/10/14 02:22:45;;;;;;;5.70;3.00;;;0.90;98.90;;;;;;2081823;28;20559;-66
2021/10/14 02:23:45;;;;;;;4.15;2.70;;;1.00;98.90;;;;;;2081161;28;20649;-67
2021/10/14 02:24:46;;;;;;;5.67;2.90;;;1.00;99.00;;;;;;2081175;28;20196;-66
2021/10/14 02:25:47;;;;;;;3.33;2.57;;;1.00;99.10;;;;;;2081814;28;20180;-66
2021/10/14 02:26:47;;;;;;;5.63;2.87;;;0.90;99.10;;;;;;2081948;28;20184;-65
2021/10/14 02:27:48;;;;;;;4.47;3.20;;;0.90;99.10;;;;;;2081885;28;20662;-66
2021/10/14 02:28:49;;;;;;;5.80;3.37;;;1.00;99.20;;;;;;2081827;28;20192;-65
2021/10/14 02:29:49;;;;;;;3.80;2.73;;;1.00;99.30;;;;;;2081941;28;20611;-66
2021/10/14 02:30:50;;;;;;;5.67;3.07;;;1.00;99.00;;;;;;2081657;28;20636;-66
2021/10/14 02:31:51;;;;;;;4.77;2.97;;;1.00;99.00;;;;;;2081433;28;20188;-65
2021/10/14 02:32:52;;;;;;;6.53;3.23;;;1.00;99.00;;;;;;2081133;28;20734;-66
2021/10/14 02:33:52;;;;;;;5.07;3.30;;;1.00;99.00;;;;;;2081098;28;20595;-67
2021/10/14 02:34:55;;;;;;;4.00;2.73;;;1.00;99.00;;;;;;2081643;28;20235;-66
2021/10/14 02:35:55;;;;;;;6.75;2.67;;;1.00;99.10;;;;;;2081648;28;20178;-66
2021/10/14 02:36:56;;;;;;;4.20;2.67;;;1.00;99.10;;;;;;2081659;28;20185;-66
2021/10/14 02:37:57;;;;;;;4.10;2.27;;;1.00;99.00;;;;;;2081593;28;20550;-65
2021/10/14 02:38:58;;;;;;;4.47;2.50;;;1.00;98.90;;;;;;2081559;28;20177;-65
2021/10/14 02:39:58;;;;;;;3.93;2.47;;;1.00;98.90;;;;;;2081627;28;20201;-67
2021/10/14 02:40:59;;;;;;;3.90;2.37;;;0.90;98.90;;;;;;2081567;28;20173;-66
2021/10/14 02:42:00;;;;;;;2.92;1.92;;;0.90;98.90;;;;;;2081498;28;20648;-66
2021/10/14 02:43:02;;;;;;;4.37;2.73;;;0.90;98.90;;;;;;2081614;28;20181;-66
2021/10/14 02:44:03;;;;;;;3.22;2.63;;;0.80;98.90;;;;;;2081556;28;20188;-66
2021/10/14 02:45:05;;;;;;;4.82;2.45;;;0.80;98.80;;;;;;2081529;28;20205;-66
2021/10/14 02:46:06;;;;;;;3.45;2.70;;;0.80;98.70;;;;;;2080923;28;20181;-66
2021/10/14 02:47:07;;;;;;;5.90;2.30;;;0.80;98.60;;;;;;2081070;28;20189;-66
2021/10/14 02:48:07;;;;;;;3.60;2.60;;;0.80;98.50;;;;;;2081419;28;20583;-65
2021/10/14 02:49:08;;;;;;;4.87;2.60;;;0.70;98.40;;;;;;2081640;28;20173;-66
2021/10/14 02:50:09;;;;;;;4.60;2.30;;;0.70;98.50;;;;;;2081401;28;20561;-66
2021/10/14 02:51:10;;;;;;;3.67;2.40;;;0.70;98.60;;;;;;2081316;28;20177;-65
2021/10/14 02:52:10;;;;;;;3.30;2.43;;;0.70;98.60;;;;;;2081465;28;20172;-66
2021/10/14 02:53:11;;;;;;;3.40;2.50;;;0.70;98.70;;;;;;2077673;28;20189;-66
2021/10/14 02:54:12;;;;;;;5.97;2.67;;;0.70;98.70;;;;;;2073335;28;20186;-67
2021/10/14 02:55:12;;;;;;;4.77;2.50;;;0.70;98.60;;;;;;2073343;28;20297;-66
2021/10/14 02:56:13;;;;;;;4.10;2.60;;;0.70;98.60;;;;;;2073197;28;20178;-66
2021/10/14 02:57:14;;;;;;;6.80;2.30;;;0.70;98.70;;;;;;2078245;28;20184;-65
2021/10/14 02:58:14;;;;;;;3.53;2.63;;;0.60;98.80;;;;;;2081381;28;20181;-66
2021/10/14 02:59:15;;;;;;;3.40;2.23;;;0.60;98.80;;;;;;2081513;28;20173;-66
2021/10/14 03:00:16;;;;;;;5.70;2.50;;;0.60;98.80;;;;;;2081374;28;20195;-67
2021/10/14 03:01:16;;;;;;;3.40;1.97;;;0.60;98.80;;;;;;2081492;28;20177;-68
2021/10/14 03:02:17;;;;;;;3.87;2.43;;;0.60;98.80;;;;;;2081491;28;20655;-66
2021/10/14 03:03:18;;;;;;;2.70;1.87;;;0.60;98.90;;;;;;2081501;28;20211;-67
2021/10/14 03:04:18;;;;;;;4.13;2.67;;;0.60;98.80;;;;;;2081727;28;20209;-67
2021/10/14 03:05:19;;;;;;;4.03;2.70;;;0.60;98.80;;;;;;2081630;28;20230;-66
2021/10/14 03:06:20;;;;;;;5.53;2.50;;;0.60;98.80;;;;;;2081381;28;20185;-66
2021/10/14 03:07:21;;;;;;;3.97;2.47;;;0.60;98.80;;;;;;2081489;28;20189;-68
2021/10/14 03:08:21;;;;;;;2.67;2.30;;;0.60;98.80;;;;;;2081512;28;20200;-67
2021/10/14 03:09:22;;;;;;;3.70;2.50;;;0.60;98.70;;;;;;2081398;28;20234;-66
2021/10/14 03:10:23;;;;;;;3.00;2.20;;;0.60;98.70;;;;;;2081458;28;20192;-67
2021/10/14 03:11:23;;;;;;;4.17;2.37;;;0.60;98.70;;;;;;2081104;28;20224;-67
2021/10/14 03:12:24;;;;;;;5.17;2.77;;;0.60;98.70;;;;;;2081465;28;20233;-66
2021/10/14 03:13:25;;;;;;;4.23;2.60;;;0.60;98.70;;;;;;2081378;28;20568;-67
2021/10/14 03:14:25;;;;;;;4.40;2.40;;;0.60;98.80;;;;;;2081459;28;20181;-67
2021/10/14 03:15:26;;;;;;;2.40;2.20;;;0.60;98.80;;;;;;2081322;28;20554;-65
2021/10/14 03:16:27;;;;;;;3.50;2.40;;;0.60;98.80;;;;;;2081570;28;20189;-67
2021/10/14 03:17:28;;;;;;;4.23;2.50;;;0.60;98.90;;;;;;2081393;28;20187;-67
2021/10/14 03:18:28;;;;;;;3.07;2.10;;;0.60;98.90;;;;;;2081472;28;20566;-67
2021/10/14 03:19:29;;;;;;;3.73;2.50;;;0.60;99.00;;;;;;2081412;28;20185;-67
2021/10/14 03:20:30;;;;;;;3.27;2.33;;;0.60;98.90;;;;;;2080773;28;20177;-67
2021/10/14 03:21:30;;;;;;;3.97;2.63;;;0.60;98.90;;;;;;2080586;28;20267;-66
2021/10/14 03:22:31;;;;;;;3.70;2.00;;;0.60;98.90;;;;;;2081450;28;20209;-67
2021/10/14 03:23:32;;;;;;;3.43;2.27;;;0.60;98.90;;;;;;2081324;28;20212;-66
2021/10/14 03:24:32;;;;;;;5.73;2.50;;;0.60;98.90;;;;;;2081433;28;20547;-66
2021/10/14 03:25:33;;;;;;;3.27;2.03;;;0.60;98.90;;;;;;2081176;28;20263;-67
2021/10/14 03:26:34;;;;;;;2.80;2.10;;;0.60;98.80;;;;;;2081366;28;20185;-66
2021/10/14 03:27:34;;;;;;;3.73;2.50;;;0.60;98.80;;;;;;2081276;28;20633;-66
2021/10/14 03:28:35;;;;;;;5.10;2.73;;;0.60;98.70;;;;;;2081372;28;20702;-67
2021/10/14 03:29:36;;;;;;;3.20;2.47;;;0.60;98.80;;;;;;2081310;28;20188;-66
2021/10/14 03:30:37;;;;;;;3.73;2.60;;;0.60;98.80;;;;;;2081274;28;20200;-66
2021/10/14 03:31:38;;;;;;;5.68;2.72;;;0.50;98.70;;;;;;2081170;28;20267;-67
2021/10/14 03:32:39;;;;;;;5.20;2.97;;;0.60;98.80;;;;;;2081314;28;20731;-67
2021/10/14 03:33:39;;;;;;;3.53;2.50;;;0.60;99.00;;;;;;2081371;28;20173;-66
2021/10/14 03:34:40;;;;;;;3.37;2.30;;;0.60;99.10;;;;;;2081391;28;20255;-67
2021/10/14 03:35:41;;;;;;;6.87;2.87;;;0.70;99.10;;;;;;2081129;28;20909;-66
2021/10/14 03:36:41;;;;;;;3.80;2.67;;;0.70;99.10;;;;;;2081419;28;20243;-66
2021/10/14 03:37:42;;;;;;;6.43;3.33;;;0.70;99.00;;;;;;2081296;28;20169;-66
2021/10/14 03:38:43;;;;;;;5.00;2.97;;;0.70;98.80;;;;;;2081451;28;20636;-66
2021/10/14 03:39:43;;;;;;;4.70;2.70;;;0.80;98.80;;;;;;2081411;28;20201;-68
2021/10/14 03:40:44;;;;;;;5.90;3.10;;;0.80;98.90;;;;;;2081213;28;20177;-66
2021/10/14 03:41:45;;;;;;;3.40;2.60;;;0.80;98.90;;;;;;2081150;28;20173;-66
2021/10/14 03:42:45;;;;;;;6.60;3.30;;;0.80;98.80;;;;;;2080701;28;20679;-67
2021/10/14 03:43:46;;;;;;;8.80;2.80;;;0.80;98.80;;;;;;2080667;28;20185;-67
2021/10/14 03:44:47;;;;;;;5.43;2.73;;;0.80;98.80;;;;;;2081255;28;20185;-67
2021/10/14 03:45:47;;;;;;;4.80;3.20;;;0.80;98.80;;;;;;2081298;28;20176;-67
2021/10/14 03:46:48;;;;;;;5.40;3.07;;;0.90;98.80;;;;;;2081451;28;20174;-66
2021/10/14 03:47:49;;;;;;;6.23;3.13;;;0.80;98.80;;;;;;2081366;28;20177;-66
2021/10/14 03:48:50;;;;;;;5.50;3.17;;;0.90;98.90;;;;;;2081248;28;20204;-67
2021/10/14 03:49:51;;;;;;;7.53;2.60;;;0.90;98.80;;;;;;2081381;28;20184;-66
2021/10/14 03:50:51;;;;;;;4.07;2.78;;;0.90;98.80;;;;;;2081107;28;20730;-68
2021/10/14 03:51:52;;;;;;;6.10;3.43;;;0.90;98.70;;;;;;2080965;28;20185;-67
2021/10/14 03:52:53;;;;;;;4.13;2.50;;;0.90;98.70;;;;;;2081273;28;20231;-66
2021/10/14 03:53:54;;;;;;;5.30;2.70;;;0.90;98.70;;;;;;2081486;28;20250;-67
2021/10/14 03:54:54;;;;;;;4.93;3.10;;;0.90;98.70;;;;;;2081115;28;20173;-65
2021/10/14 03:55:56;;;;;;;6.37;3.07;;;0.90;98.80;;;;;;2081278;28;20537;-65
2021/10/14 03:56:56;;;;;;;6.05;3.10;;;0.90;98.80;;;;;;2080407;28;20597;-66
2021/10/14 03:57:57;;;;;;;4.50;2.77;;;0.90;98.80;;;;;;2080700;28;20196;-65
2021/10/14 03:58:58;;;;;;;4.60;2.27;;;0.90;98.70;;;;;;2081182;28;20261;-67
2021/10/14 03:59:58;;;;;;;4.03;2.50;;;0.90;98.70;;;;;;2081257;28;20184;-66
2021/10/14 04:00:59;;;;;;;3.73;2.70;;;0.90;98.70;;;;;;2081011;28;20176;-70
2021/10/14 04:02:00;;;;;;;5.93;2.60;;;0.90;98.60;;;;;;2081005;28;20669;-67
2021/10/14 04:03:00;;;;;;;3.90;2.40;;;0.80;98.60;;;;;;2081091;28;20176;-65
2021/10/14 04:04:01;;;;;;;4.30;2.40;;;0.90;98.60;;;;;;2081147;28;20184;-65
2021/10/14 04:05:04;;;;;;;4.20;2.60;;;0.90;98.60;;;;;;2081674;28;20207;-65
2021/10/14 04:06:04;;;;;;;6.25;2.97;;;0.80;98.40;;;;;;2082199;28;20628;-65
2021/10/14 04:07:05;;;;;;;4.20;2.43;;;0.80;98.40;;;;;;2082183;28;20185;-65
2021/10/14 04:08:06;;;;;;;3.77;2.30;;;0.80;98.50;;;;;;2082837;28;20708;-66
2021/10/14 04:09:06;;;;;;;3.83;2.73;;;0.80;98.50;;;;;;2082839;28;20180;-66
2021/10/14 04:10:08;;;;;;;6.27;2.67;;;0.80;98.50;;;;;;2082862;28;20659;-65
2021/10/14 04:11:09;;;;;;;3.05;2.42;;;0.80;98.40;;;;;;2082524;28;20252;-66
2021/10/14 04:12:10;;;;;;;3.37;2.27;;;0.80;98.40;;;;;;2082964;28;20489;-65
2021/10/14 04:13:10;;;;;;;3.77;2.20;;;0.80;98.30;;;;;;2082698;28;20187;-66
2021/10/14 04:14:11;;;;;;;4.00;2.43;;;0.80;98.20;;;;;;2082912;28;20189;-66
2021/10/14 04:15:12;;;;;;;5.97;2.60;;;0.70;98.20;;;;;;2082738;28;20201;-65
2021/10/14 04:16:13;;;;;;;3.43;2.50;;;0.70;98.40;;;;;;2082813;28;20173;-67
2021/10/14 04:17:13;;;;;;;4.40;2.70;;;0.70;98.50;;;;;;2082867;28;20212;-66
2021/10/14 04:18:14;;;;;;;3.53;2.33;;;0.70;98.40;;;;;;2082825;28;20277;-65
2021/10/14 04:19:15;;;;;;;3.08;2.22;;;0.80;98.40;;;;;;2082883;28;20249;-65
2021/10/14 04:20:16;;;;;;;5.40;2.60;;;0.80;98.40;;;;;;2082834;28;20827;-66
2021/10/14 04:21:16;;;;;;;4.07;2.87;;;0.80;98.50;;;;;;2082439;28;20326;-66
2021/10/14 04:22:18;;;;;;;3.83;2.70;;;0.70;98.50;;;;;;2082904;28;20205;-66
2021/10/14 04:23:20;;;;;;;3.75;2.20;;;0.70;98.40;;;;;;2082624;28;20181;-65
2021/10/14 04:24:21;;;;;;;3.58;2.45;;;0.70;98.40;;;;;;2082779;28;20278;-67
2021/10/14 04:25:22;;;;;;;3.93;2.57;;;0.70;98.40;;;;;;2082663;28;20201;-66
2021/10/14 04:26:22;;;;;;;4.27;2.70;;;0.70;98.30;;;;;;2082865;28;20189;-67
2021/10/14 04:27:23;;;;;;;4.83;2.50;;;0.70;98.20;;;;;;2082815;28;20193;-66
2021/10/14 04:28:24;;;;;;;5.53;2.57;;;0.70;98.20;;;;;;2082717;28;20276;-67
2021/10/14 04:29:25;;;;;;;5.17;2.67;;;0.70;98.20;;;;;;2082649;28;20275;-66
2021/10/14 04:30:25;;;;;;;4.07;2.57;;;0.60;98.20;;;;;;2082649;28;20185;-65
2021/10/14 04:31:27;;;;;;;6.97;2.73;;;0.60;98.60;;;;;;2082743;28;20561;-65
2021/10/14 04:32:28;;;;;;;4.82;2.70;;;0.60;98.20;;;;;;2082514;28;20581;-66
2021/10/14 04:33:29;;;;;;;3.33;2.50;;;0.60;98.20;;;;;;2082817;28;20267;-66
2021/10/14 04:34:30;;;;;;;3.25;2.50;;;0.60;98.20;;;;;;2082591;28;20268;-66
2021/10/14 04:35:31;;;;;;;5.40;2.83;;;0.60;98.30;;;;;;2082737;28;20259;-67
2021/10/14 04:36:31;;;;;;;4.37;2.60;;;0.60;98.40;;;;;;2082590;28;20259;-65
2021/10/14 04:37:32;;;;;;;5.20;2.97;;;0.60;98.50;;;;;;2082688;28;20719;-65
2021/10/14 04:38:33;;;;;;;4.40;2.57;;;0.60;98.40;;;;;;2082627;28;20169;-67
2021/10/14 04:39:38;;;;;;;5.50;3.20;;;0.60;98.30;;;;;;2082665;28;20169;-65
2021/10/14 04:40:39;;;;;;;4.50;2.55;;;0.70;98.30;;;;;;2082776;28;20180;-65
2021/10/14 04:41:41;;;;;;;4.67;2.77;;;0.60;98.30;;;;;;2082351;28;20192;-65
2021/10/14 04:42:42;;;;;;;4.75;2.67;;;0.60;98.30;;;;;;2082506;28;20294;-66
2021/10/14 04:43:42;;;;;;;4.33;2.40;;;0.60;98.30;;;;;;2082826;28;20196;-65
2021/10/14 04:44:43;;;;;;;4.17;2.43;;;0.60;98.30;;;;;;2082566;28;20205;-67
2021/10/14 04:45:44;;;;;;;3.67;2.20;;;0.60;98.20;;;;;;2082538;28;20292;-66
2021/10/14 04:46:44;;;;;;;4.73;2.80;;;0.50;98.20;;;;;;2082680;28;20642;-66
2021/10/14 04:47:45;;;;;;;4.50;2.30;;;0.50;98.20;;;;;;2082608;28;20226;-67
2021/10/14 04:48:46;;;;;;;5.17;2.83;;;0.50;98.40;;;;;;2082383;28;20192;-66
2021/10/14 04:49:48;;;;;;;3.67;2.63;;;0.50;98.40;;;;;;2077729;28;20177;-66
2021/10/14 04:50:48;;;;;;;4.13;3.15;;;0.50;98.40;;;;;;2073603;28;20351;-65
2021/10/14 04:51:49;;;;;;;3.37;2.60;;;0.40;98.40;;;;;;2074232;28;20178;-67
2021/10/14 04:52:50;;;;;;;5.80;3.13;;;0.50;98.50;;;;;;2074310;28;20218;-66
2021/10/14 04:53:50;;;;;;;4.70;2.80;;;0.50;98.60;;;;;;2074379;28;20185;-66
2021/10/14 04:54:51;;;;;;;7.07;3.63;;;0.50;98.70;;;;;;2074408;28;20182;-67
2021/10/14 04:55:52;;;;;;;6.00;3.17;;;0.50;98.80;;;;;;2074262;28;20181;-66
2021/10/14 04:56:53;;;;;;;6.03;3.00;;;0.60;99.00;;;;;;2074458;28;20227;-66
2021/10/14 04:57:53;;;;;;;10.13;3.30;;;0.60;99.00;;;;;;2074252;28;20188;-66
2021/10/14 04:58:54;;;;;;;5.77;2.90;;;0.60;99.00;;;;;;2074065;28;20192;-65
2021/10/14 04:59:55;;;;;;;5.73;2.93;;;0.60;99.10;;;;;;2074315;28;20177;-65
2021/10/14 05:00:55;;;;;;;5.77;3.20;;;0.60;99.00;;;;;;2074034;28;20634;-67
2021/10/14 05:01:56;;;;;;;6.10;3.33;;;0.60;99.00;;;;;;2074007;28;20177;-65
2021/10/14 05:02:57;;;;;;;4.27;3.00;;;0.70;98.90;;;;;;2075424;28;20178;-64
2021/10/14 05:03:58;;;;;;;5.13;3.33;;;0.60;98.90;;;;;;2082238;28;20185;-66
2021/10/14 05:04:59;;;;;;;7.78;3.40;;;0.70;98.70;;;;;;2081604;28;20558;-64
2021/10/14 05:06:00;;;;;;;6.20;3.30;;;0.70;98.60;;;;;;2081593;28;20215;-65
2021/10/14 05:07:00;;;;;;;4.83;2.80;;;0.70;98.60;;;;;;2082203;28;20169;-65
2021/10/14 05:08:01;;;;;;;4.90;3.37;;;0.80;98.60;;;;;;2082265;28;20266;-65
2021/10/14 05:09:02;;;;;;;4.87;2.80;;;0.70;98.60;;;;;;2082372;28;20671;-65
2021/10/14 05:10:04;;;;;;;5.72;2.92;;;0.70;98.70;;;;;;2082273;28;20181;-66
2021/10/14 05:11:10;;;;;;;4.82;3.28;;;0.70;98.70;;;;;;2082069;28;20185;-65
2021/10/14 05:12:11;;;;;;;4.78;3.10;;;0.70;98.70;;;;;;2081663;28;20173;-65
2021/10/14 05:13:11;;;;;;;4.37;2.90;;;0.70;98.80;;;;;;2081799;28;20192;-67
2021/10/14 05:14:12;;;;;;;9.23;3.37;;;0.70;98.90;;;;;;2082205;28;20257;-65
2021/10/14 05:15:13;;;;;;;5.73;3.77;;;0.70;98.80;;;;;;2082241;28;20665;-65
2021/10/14 05:16:13;;;;;;;6.60;2.87;;;0.70;98.80;;;;;;2082049;28;20176;-66
2021/10/14 05:17:14;;;;;;;5.47;3.10;;;0.70;98.80;;;;;;2082216;28;20181;-66
2021/10/14 05:18:15;;;;;;;5.67;3.63;;;0.60;98.80;;;;;;2082189;28;20264;-66
2021/10/14 05:19:16;;;;;;;5.57;3.33;;;0.60;99.00;;;;;;2082289;28;20272;-65
2021/10/14 05:20:16;;;;;;;5.37;3.00;;;0.60;98.90;;;;;;2082686;28;20232;-66
2021/10/14 05:21:17;;;;;;;5.23;2.77;;;0.60;98.90;;;;;;2082048;28;20197;-66